createdAt,value
2019-05-29T00:00:45.128Z,53.50
2019-05-29T00:01:45.574Z,57.20
2019-05-29T00:02:45.486Z,51.08
2019-05-29T00:03:45.718Z,58.17
2019-05-29T00:04:45.902Z,53.50
2019-05-29T00:05:46.070Z,53.17
2019-05-29T00:06:46.299Z,62.84
2019-05-29T00:07:46.580Z,53.50
2019-05-29T00:08:46.647Z,52.37
2019-05-29T00:09:46.829Z,65.26
2019-05-29T00:10:47.015Z,64.13
2019-05-29T00:11:47.210Z,51.24
2019-05-29T00:12:47.484Z,65.90
2019-05-29T00:13:47.658Z,53.33
2019-05-29T00:14:47.854Z,65.74
2019-05-29T00:15:48.575Z,57.04
2019-05-29T00:16:48.251Z,78.79
2019-05-29T00:17:49.444Z,62.04
2019-05-29T00:18:48.598Z,66.06
2019-05-29T00:19:48.782Z,68.16
2019-05-29T00:20:48.997Z,75.25
2019-05-29T00:21:49.204Z,53.01
2019-05-29T00:22:49.579Z,65.58
2019-05-29T00:23:49.625Z,66.39
2019-05-29T00:24:49.820Z,66.06
2019-05-29T00:25:50.010Z,52.21
2019-05-29T00:26:50.194Z,66.71
2019-05-29T00:27:50.378Z,75.09
2019-05-29T00:28:51.562Z,73.96
2019-05-29T00:29:50.718Z,79.60
2019-05-29T00:30:51.902Z,60.59
2019-05-29T00:31:51.077Z,52.85
2019-05-29T00:32:51.189Z,62.52
2019-05-29T00:33:51.385Z,54.46
2019-05-29T00:34:51.571Z,78.31
2019-05-29T00:35:51.761Z,53.66
2019-05-29T00:36:51.951Z,63.16
2019-05-29T00:37:52.133Z,76.70
2019-05-29T00:38:52.323Z,69.45
2019-05-29T00:39:52.509Z,67.19
2019-05-29T00:40:52.701Z,63.00
2019-05-29T00:41:52.922Z,73.64
2019-05-29T00:42:53.102Z,60.59
2019-05-29T00:43:53.281Z,54.30
2019-05-29T00:44:53.475Z,59.78
2019-05-29T00:45:54.085Z,62.52
2019-05-29T00:46:53.896Z,54.14
2019-05-29T00:47:54.576Z,52.21
2019-05-29T00:48:54.233Z,53.98
2019-05-29T00:49:54.419Z,57.36
2019-05-29T00:50:54.569Z,58.97
2019-05-29T00:51:54.721Z,53.50
2019-05-29T00:52:54.957Z,63.65
2019-05-29T00:53:55.045Z,56.40
2019-05-29T00:54:55.213Z,54.46
2019-05-29T00:55:55.394Z,58.33
2019-05-29T00:56:55.599Z,55.43
2019-05-29T00:57:56.571Z,51.24
2019-05-29T00:58:56.008Z,50.76
2019-05-29T00:59:56.182Z,78.96
2019-05-29T01:00:56.376Z,54.62
2019-05-29T01:01:56.591Z,51.56
2019-05-29T01:02:56.785Z,51.88
2019-05-29T01:03:57.092Z,51.72
2019-05-29T01:04:57.134Z,65.74
2019-05-29T01:05:58.071Z,66.55
2019-05-29T01:06:57.474Z,51.88
2019-05-29T01:07:57.657Z,51.40
2019-05-29T01:08:57.867Z,65.26
2019-05-29T01:09:58.042Z,50.76
2019-05-29T01:10:59.073Z,54.95
2019-05-29T01:11:58.478Z,51.24
2019-05-29T01:12:58.639Z,52.69
2019-05-29T01:13:58.845Z,72.35
2019-05-29T01:14:59.012Z,62.68
2019-05-29T01:15:59.178Z,53.01
2019-05-29T01:17:00.073Z,59.30
2019-05-29T01:18:00.077Z,61.39
2019-05-29T01:18:59.640Z,75.57
2019-05-29T01:19:59.807Z,80.89
2019-05-29T01:20:59.974Z,71.70
2019-05-29T01:22:00.153Z,66.06
2019-05-29T01:23:00.299Z,72.83
2019-05-29T01:24:00.515Z,78.15
2019-05-29T01:25:00.704Z,79.28
2019-05-29T01:26:00.864Z,76.70
2019-05-29T01:27:01.617Z,74.12
2019-05-29T01:28:01.153Z,74.44
2019-05-29T01:29:01.582Z,88.30
2019-05-29T01:30:01.527Z,78.96
2019-05-29T01:31:01.691Z,80.57
2019-05-29T01:32:01.839Z,91.36
2019-05-29T01:33:01.986Z,74.93
2019-05-29T01:34:02.127Z,81.86
2019-05-29T01:35:02.298Z,72.83
2019-05-29T01:36:02.443Z,69.93
2019-05-29T01:37:03.598Z,74.28
2019-05-29T01:38:02.837Z,76.54
2019-05-29T01:39:02.998Z,72.51
2019-05-29T01:40:18.673Z,71.22
2019-05-29T01:41:05.328Z,76.22
2019-05-29T01:42:04.072Z,62.84
2019-05-29T01:43:03.583Z,63.81
2019-05-29T01:44:03.750Z,62.68
2019-05-29T01:45:08.251Z,63.33
2019-05-29T01:46:05.090Z,63.00
2019-05-29T01:47:04.228Z,64.29
2019-05-29T01:48:04.394Z,66.23
2019-05-29T01:49:05.080Z,67.19
2019-05-29T01:50:04.738Z,64.61
2019-05-29T01:51:05.578Z,69.13
2019-05-29T01:52:05.085Z,68.48
2019-05-29T01:53:05.247Z,78.31
2019-05-29T01:54:05.387Z,63.33
2019-05-29T01:55:05.567Z,63.00
2019-05-29T01:56:05.723Z,75.73
2019-05-29T01:57:05.885Z,69.29
2019-05-29T01:58:06.057Z,76.86
2019-05-29T01:59:06.265Z,73.96
2019-05-29T02:00:06.453Z,63.33
2019-05-29T02:01:06.659Z,64.61
2019-05-29T02:02:06.832Z,62.04
2019-05-29T02:03:07.003Z,66.23
2019-05-29T02:04:07.156Z,68.64
2019-05-29T02:05:07.369Z,76.22
2019-05-29T02:06:08.082Z,59.62
2019-05-29T02:07:07.737Z,81.05
2019-05-29T02:08:07.908Z,64.78
2019-05-29T02:09:08.085Z,57.36
2019-05-29T02:10:08.584Z,59.78
2019-05-29T02:11:08.440Z,62.84
2019-05-29T02:12:08.611Z,60.59
2019-05-29T02:13:08.784Z,58.81
2019-05-29T02:14:08.939Z,63.81
2019-05-29T02:15:23.098Z,73.96
2019-05-29T02:16:10.263Z,66.06
2019-05-29T02:17:09.396Z,78.47
2019-05-29T02:18:09.540Z,71.87
2019-05-29T02:19:09.707Z,60.75
2019-05-29T02:20:09.893Z,63.81
2019-05-29T02:21:10.104Z,61.71
2019-05-29T02:22:10.299Z,62.52
2019-05-29T02:23:10.463Z,63.33
2019-05-29T02:24:11.575Z,64.94
2019-05-29T02:25:11.589Z,87.01
2019-05-29T02:26:10.958Z,81.86
2019-05-29T02:27:11.131Z,77.02
2019-05-29T02:28:12.083Z,65.58
2019-05-29T02:29:11.436Z,70.74
2019-05-29T02:30:11.585Z,77.50
2019-05-29T02:31:11.706Z,66.23
2019-05-29T02:32:11.867Z,67.03
2019-05-29T02:33:12.012Z,76.05
2019-05-29T02:34:12.188Z,77.99
2019-05-29T02:35:12.316Z,63.00
2019-05-29T02:36:12.437Z,77.34
2019-05-29T02:37:12.600Z,60.59
2019-05-29T02:38:13.576Z,74.93
2019-05-29T02:39:12.954Z,59.78
2019-05-29T02:40:13.126Z,60.42
2019-05-29T02:41:13.288Z,78.47
2019-05-29T02:42:13.519Z,76.22
2019-05-29T02:43:14.584Z,66.06
2019-05-29T02:44:13.849Z,72.51
2019-05-29T02:45:14.003Z,76.54
2019-05-29T02:46:14.176Z,79.92
2019-05-29T02:47:15.323Z,74.44
2019-05-29T02:48:14.569Z,77.50
2019-05-29T02:49:14.691Z,78.31
2019-05-29T02:50:14.818Z,62.68
2019-05-29T02:51:15.586Z,61.23
2019-05-29T02:52:15.226Z,80.73
2019-05-29T02:53:15.383Z,63.65
2019-05-29T02:54:15.512Z,77.99
2019-05-29T02:55:15.635Z,63.00
2019-05-29T02:56:15.773Z,78.79
2019-05-29T02:57:16.034Z,79.76
2019-05-29T02:58:16.200Z,59.30
2019-05-29T02:59:16.327Z,66.39
2019-05-29T03:00:17.459Z,63.16
2019-05-29T03:01:16.729Z,65.90
2019-05-29T03:02:16.866Z,76.70
2019-05-29T03:03:17.048Z,64.78
2019-05-29T03:04:17.181Z,79.76
2019-05-29T03:05:18.087Z,75.57
2019-05-29T03:06:17.455Z,69.61
2019-05-29T03:07:17.603Z,78.96
2019-05-29T03:08:17.798Z,83.79
2019-05-29T03:09:18.165Z,83.79
2019-05-29T03:10:18.137Z,77.99
2019-05-29T03:11:18.271Z,79.28
2019-05-29T03:12:19.451Z,81.05
2019-05-29T03:13:18.555Z,77.99
2019-05-29T03:14:18.697Z,76.86
2019-05-29T03:15:18.873Z,81.05
2019-05-29T03:16:19.052Z,82.18
2019-05-29T03:17:19.212Z,84.76
2019-05-29T03:18:20.087Z,80.73
2019-05-29T03:19:19.631Z,76.54
2019-05-29T03:20:19.805Z,82.02
2019-05-29T03:21:19.950Z,76.05
2019-05-29T03:22:20.102Z,74.44
2019-05-29T03:23:20.243Z,81.05
2019-05-29T03:24:20.411Z,76.86
2019-05-29T03:25:21.092Z,81.69
2019-05-29T03:26:24.594Z,84.27
2019-05-29T03:27:23.035Z,81.05
2019-05-29T03:28:21.234Z,78.47
2019-05-29T03:29:21.385Z,83.14
2019-05-29T03:30:21.525Z,81.53
2019-05-29T03:31:21.709Z,82.18
2019-05-29T03:32:21.931Z,81.86
2019-05-29T03:33:22.036Z,82.82
2019-05-29T03:34:22.225Z,82.98
2019-05-29T03:35:22.362Z,79.44
2019-05-29T03:36:22.571Z,76.70
2019-05-29T03:37:22.757Z,84.11
2019-05-29T03:38:22.913Z,83.14
2019-05-29T03:39:23.083Z,81.53
2019-05-29T03:40:23.266Z,77.99
2019-05-29T03:41:23.439Z,81.69
2019-05-29T03:42:23.597Z,80.73
2019-05-29T03:43:23.758Z,80.89
2019-05-29T03:44:23.918Z,81.21
2019-05-29T03:45:24.068Z,80.08
2019-05-29T03:46:31.362Z,82.02
2019-05-29T03:47:26.916Z,81.05
2019-05-29T03:48:25.949Z,83.14
2019-05-29T03:49:24.782Z,79.12
2019-05-29T03:50:26.618Z,83.95
2019-05-29T03:51:27.164Z,80.89
2019-05-29T03:52:26.326Z,77.50
2019-05-29T03:53:27.087Z,79.12
2019-05-29T03:54:28.649Z,79.60
2019-05-29T03:55:27.283Z,81.69
2019-05-29T03:56:26.454Z,82.02
2019-05-29T03:57:27.748Z,81.53
2019-05-29T03:58:28.867Z,64.29
2019-05-29T03:59:28.159Z,82.98
2019-05-29T04:00:31.874Z,67.19
2019-05-29T04:01:29.679Z,77.18
2019-05-29T04:02:28.686Z,77.34
2019-05-29T04:03:28.985Z,71.54
2019-05-29T04:04:29.056Z,78.79
2019-05-29T04:05:29.091Z,79.60
2019-05-29T04:06:29.135Z,81.69
2019-05-29T04:07:29.377Z,78.63
2019-05-29T04:08:31.528Z,78.47
2019-05-29T04:09:29.218Z,78.15
2019-05-29T04:10:32.078Z,78.15
2019-05-29T04:11:29.263Z,80.08
2019-05-29T04:12:31.310Z,83.47
2019-05-29T04:13:29.609Z,79.92
2019-05-29T04:14:31.608Z,81.86
2019-05-29T04:15:29.530Z,79.12
2019-05-29T04:16:49.603Z,80.73
2019-05-29T04:17:31.972Z,73.48
2019-05-29T04:18:31.383Z,79.60
2019-05-29T04:19:32.035Z,87.50
2019-05-29T04:20:31.586Z,78.79
2019-05-29T04:21:32.079Z,79.44
2019-05-29T04:22:32.888Z,80.73
2019-05-29T04:23:32.199Z,77.50
2019-05-29T04:24:33.776Z,81.86
2019-05-29T04:25:35.151Z,85.24
2019-05-29T04:26:34.059Z,77.02
2019-05-29T04:27:32.027Z,81.86
2019-05-29T04:28:32.388Z,82.34
2019-05-29T04:29:34.211Z,82.02
2019-05-29T04:30:32.242Z,78.79
2019-05-29T04:31:32.928Z,81.21
2019-05-29T04:32:34.205Z,77.67
2019-05-29T04:33:35.033Z,78.79
2019-05-29T04:34:34.246Z,80.08
2019-05-29T04:35:34.628Z,82.18
2019-05-29T04:36:34.876Z,79.44
2019-05-29T04:37:34.512Z,77.02
2019-05-29T04:38:35.511Z,80.08
2019-05-29T04:39:34.496Z,81.05
2019-05-29T04:40:34.976Z,79.92
2019-05-29T04:41:36.861Z,80.89
2019-05-29T04:42:35.775Z,80.89
2019-05-29T04:43:35.465Z,81.86
2019-05-29T04:44:38.215Z,78.63
2019-05-29T04:45:39.217Z,78.96
2019-05-29T04:46:36.342Z,79.44
2019-05-29T04:47:56.284Z,78.96
2019-05-29T04:48:36.291Z,84.27
2019-05-29T04:49:37.889Z,81.69
2019-05-29T04:50:38.072Z,81.86
2019-05-29T04:51:37.447Z,82.98
2019-05-29T04:52:38.308Z,77.50
2019-05-29T04:53:37.853Z,80.24
2019-05-29T04:54:38.421Z,82.18
2019-05-29T04:55:37.053Z,80.57
2019-05-29T04:56:37.119Z,81.53
2019-05-29T04:57:37.331Z,80.57
2019-05-29T04:58:37.499Z,77.18
2019-05-29T04:59:37.713Z,78.96
2019-05-29T05:00:37.775Z,77.18
2019-05-29T05:01:39.199Z,81.86
2019-05-29T05:02:39.257Z,78.47
2019-05-29T05:03:39.449Z,80.57
2019-05-29T05:04:39.428Z,80.73
2019-05-29T05:05:39.531Z,68.96
2019-05-29T05:06:39.476Z,80.57
2019-05-29T05:07:39.608Z,77.34
2019-05-29T05:08:39.678Z,78.47
2019-05-29T05:09:40.509Z,79.60
2019-05-29T05:10:40.881Z,86.69
2019-05-29T05:11:40.802Z,80.08
2019-05-29T05:12:40.660Z,82.34
2019-05-29T05:13:40.087Z,77.67
2019-05-29T05:14:40.258Z,80.89
2019-05-29T05:15:40.469Z,83.95
2019-05-29T05:16:40.650Z,78.96
2019-05-29T05:17:40.796Z,75.41
2019-05-29T05:18:40.957Z,81.05
2019-05-29T05:19:41.129Z,80.08
2019-05-29T05:20:41.345Z,80.24
2019-05-29T05:21:42.090Z,79.76
2019-05-29T05:22:42.714Z,102.48
2019-05-29T05:23:41.866Z,82.66
2019-05-29T05:24:44.067Z,73.15
2019-05-29T05:25:43.250Z,77.67
2019-05-29T05:26:42.396Z,78.96
2019-05-29T05:27:42.566Z,79.12
2019-05-29T05:28:45.126Z,81.86
2019-05-29T05:29:43.889Z,77.99
2019-05-29T05:30:43.059Z,79.60
2019-05-29T05:31:43.208Z,79.12
2019-05-29T05:32:43.388Z,76.54
2019-05-29T05:33:43.540Z,78.15
2019-05-29T05:34:43.713Z,81.53
2019-05-29T05:35:43.925Z,81.86
2019-05-29T05:36:44.087Z,79.28
2019-05-29T05:37:44.259Z,78.63
2019-05-29T05:38:45.108Z,80.08
2019-05-29T05:39:44.647Z,81.37
2019-05-29T05:40:44.849Z,79.44
2019-05-29T05:41:45.059Z,78.79
2019-05-29T05:42:45.278Z,76.38
2019-05-29T05:43:45.456Z,80.41
2019-05-29T05:44:45.637Z,79.44
2019-05-29T05:45:45.833Z,82.34
2019-05-29T05:46:46.117Z,80.89
2019-05-29T05:47:56.842Z,83.79
2019-05-29T05:48:48.404Z,78.31
2019-05-29T05:49:46.516Z,78.96
2019-05-29T05:50:47.495Z,79.92
2019-05-29T05:51:46.896Z,75.25
2019-05-29T05:52:48.604Z,80.08
2019-05-29T05:53:47.258Z,78.79
2019-05-29T05:54:47.461Z,79.12
2019-05-29T05:55:47.663Z,79.12
2019-05-29T05:56:47.855Z,78.15
2019-05-29T05:57:48.046Z,77.50
2019-05-29T05:58:48.219Z,82.02
2019-05-29T05:59:48.400Z,79.60
2019-05-29T06:00:48.600Z,78.63
2019-05-29T06:01:48.819Z,82.34
2019-05-29T06:02:52.106Z,81.86
2019-05-29T06:03:49.138Z,79.76
2019-05-29T06:04:49.316Z,78.79
2019-05-29T06:05:50.096Z,77.02
2019-05-29T06:06:49.747Z,84.59
2019-05-29T06:07:49.955Z,78.31
2019-05-29T06:08:50.136Z,82.34
2019-05-29T06:09:50.318Z,77.50
2019-05-29T06:10:51.327Z,79.92
2019-05-29T06:11:51.667Z,77.67
2019-05-29T06:12:50.817Z,76.54
2019-05-29T06:13:51.014Z,79.60
2019-05-29T06:14:51.622Z,81.37
2019-05-29T06:15:51.401Z,74.77
2019-05-29T06:16:51.576Z,79.60
2019-05-29T06:18:17.098Z,80.08
2019-05-29T06:18:53.912Z,77.34
2019-05-29T06:19:52.009Z,79.44
2019-05-29T06:20:52.189Z,78.47
2019-05-29T06:21:52.348Z,77.18
2019-05-29T06:22:52.480Z,79.12
2019-05-29T06:23:52.687Z,84.43
2019-05-29T06:24:52.845Z,81.21
2019-05-29T06:25:53.011Z,78.15
2019-05-29T06:26:54.103Z,78.31
2019-05-29T06:27:53.343Z,79.12
2019-05-29T06:28:53.511Z,81.53
2019-05-29T06:29:53.650Z,77.99
2019-05-29T06:30:53.790Z,80.24
2019-05-29T06:31:53.962Z,77.83
2019-05-29T06:32:54.119Z,77.67
2019-05-29T06:33:54.311Z,76.70
2019-05-29T06:34:54.459Z,77.50
2019-05-29T06:35:54.627Z,77.67
2019-05-29T06:36:54.783Z,78.96
2019-05-29T06:37:54.932Z,80.24
2019-05-29T06:38:55.073Z,77.34
2019-05-29T06:39:55.251Z,79.12
2019-05-29T06:40:55.388Z,81.69
2019-05-29T06:41:55.513Z,76.86
2019-05-29T06:42:55.653Z,79.12
2019-05-29T06:43:55.802Z,76.70
2019-05-29T06:44:56.171Z,65.42
2019-05-29T06:45:56.075Z,76.70
2019-05-29T06:46:56.226Z,76.54
2019-05-29T06:47:56.389Z,78.79
2019-05-29T06:49:00.717Z,77.18
2019-05-29T06:49:57.799Z,78.31
2019-05-29T06:50:57.644Z,76.38
2019-05-29T06:51:58.131Z,79.60
2019-05-29T06:52:57.300Z,77.18
2019-05-29T06:53:57.459Z,81.53
2019-05-29T06:54:57.625Z,76.22
2019-05-29T06:55:58.807Z,77.50
2019-05-29T06:56:58.019Z,77.34
2019-05-29T06:57:58.197Z,81.86
2019-05-29T06:58:58.381Z,79.92
2019-05-29T06:59:58.596Z,76.05
2019-05-29T07:00:58.795Z,75.89
2019-05-29T07:01:59.011Z,77.83
2019-05-29T07:02:59.176Z,82.34
2019-05-29T07:04:11.129Z,74.93
2019-05-29T07:05:01.551Z,76.86
2019-05-29T07:05:59.689Z,77.99
2019-05-29T07:06:59.901Z,76.05
2019-05-29T07:08:17.134Z,76.05
2019-05-29T07:09:03.126Z,81.86
2019-05-29T07:10:00.384Z,77.50
2019-05-29T07:11:00.550Z,75.41
2019-05-29T07:12:00.739Z,75.57
2019-05-29T07:13:00.905Z,76.38
2019-05-29T07:14:01.081Z,78.63
2019-05-29T07:15:01.227Z,76.05
2019-05-29T07:16:01.367Z,73.15
2019-05-29T07:17:01.554Z,78.31
2019-05-29T07:18:01.693Z,78.31
2019-05-29T07:19:25.254Z,79.92
2019-05-29T07:20:04.376Z,73.32
2019-05-29T07:21:03.293Z,76.86
2019-05-29T07:22:02.646Z,77.50
2019-05-29T07:23:02.560Z,78.31
2019-05-29T07:24:02.712Z,75.73
2019-05-29T07:25:02.872Z,78.15
2019-05-29T07:26:03.022Z,78.47
2019-05-29T07:27:03.209Z,75.57
2019-05-29T07:28:03.371Z,78.63
2019-05-29T07:29:08.239Z,74.77
2019-05-29T07:30:05.635Z,82.66
2019-05-29T07:31:04.129Z,80.08
2019-05-29T07:32:04.026Z,72.19
2019-05-29T07:33:04.151Z,77.34
2019-05-29T07:34:04.289Z,78.31
2019-05-29T07:35:04.765Z,75.89
2019-05-29T07:36:04.690Z,77.67
2019-05-29T07:37:05.144Z,76.05
2019-05-29T07:38:05.032Z,77.99
2019-05-29T07:39:05.172Z,72.67
2019-05-29T07:40:05.307Z,77.50
2019-05-29T07:41:05.448Z,77.67
2019-05-29T07:42:05.715Z,76.05
2019-05-29T07:43:05.847Z,77.83
2019-05-29T07:44:05.983Z,77.67
2019-05-29T07:45:06.162Z,78.47
2019-05-29T07:46:06.306Z,74.93
2019-05-29T07:47:09.815Z,79.44
2019-05-29T07:48:06.590Z,77.50
2019-05-29T07:49:06.756Z,76.70
2019-05-29T07:50:06.920Z,75.89
2019-05-29T07:51:07.497Z,77.50
2019-05-29T07:52:07.352Z,78.63
2019-05-29T07:53:07.525Z,77.99
2019-05-29T07:54:07.716Z,76.05
2019-05-29T07:55:07.979Z,77.99
2019-05-29T07:56:21.601Z,76.22
2019-05-29T07:57:10.198Z,75.25
2019-05-29T07:58:08.344Z,78.79
2019-05-29T07:59:09.146Z,76.70
2019-05-29T08:00:08.705Z,77.67
2019-05-29T08:01:13.121Z,78.47
2019-05-29T08:02:11.022Z,77.02
2019-05-29T08:03:09.175Z,77.67
2019-05-29T08:04:10.146Z,75.89
2019-05-29T08:05:10.150Z,77.02
2019-05-29T08:06:09.723Z,74.44
2019-05-29T08:07:09.874Z,80.73
2019-05-29T08:08:10.052Z,76.05
2019-05-29T08:09:10.208Z,77.18
2019-05-29T08:10:10.372Z,76.05
2019-05-29T08:11:10.544Z,77.67
2019-05-29T08:12:10.733Z,78.31
2019-05-29T08:13:10.915Z,76.05
2019-05-29T08:14:11.091Z,76.54
2019-05-29T08:15:11.273Z,79.60
2019-05-29T08:16:11.444Z,75.41
2019-05-29T08:17:11.612Z,75.89
2019-05-29T08:18:11.804Z,76.05
2019-05-29T08:19:11.989Z,76.05
2019-05-29T08:20:13.150Z,77.18
2019-05-29T08:21:12.400Z,77.34
2019-05-29T08:22:13.163Z,75.41
2019-05-29T08:23:12.684Z,77.83
2019-05-29T08:24:12.830Z,77.18
2019-05-29T08:25:12.982Z,76.54
2019-05-29T08:26:13.092Z,77.34
2019-05-29T08:27:13.231Z,78.63
2019-05-29T08:28:13.411Z,77.02
2019-05-29T08:29:13.561Z,84.11
2019-05-29T08:30:13.716Z,75.73
2019-05-29T08:31:13.861Z,76.38
2019-05-29T08:32:14.005Z,88.14
2019-05-29T08:33:14.155Z,77.50
2019-05-29T08:34:14.312Z,72.83
2019-05-29T08:35:14.443Z,79.44
2019-05-29T08:36:14.585Z,76.86
2019-05-29T08:37:14.723Z,76.54
2019-05-29T08:38:14.849Z,77.02
2019-05-29T08:39:33.008Z,77.67
2019-05-29T08:40:16.140Z,75.73
2019-05-29T08:41:15.368Z,77.50
2019-05-29T08:42:23.348Z,76.38
2019-05-29T08:43:17.624Z,77.34
2019-05-29T08:44:16.196Z,79.12
2019-05-29T08:45:16.096Z,78.15
2019-05-29T08:46:16.257Z,78.15
2019-05-29T08:47:16.430Z,76.54
2019-05-29T08:48:16.572Z,78.79
2019-05-29T08:49:16.726Z,77.67
2019-05-29T08:50:18.924Z,77.18
2019-05-29T08:51:18.085Z,77.67
2019-05-29T08:52:17.306Z,76.54
2019-05-29T08:53:17.454Z,76.22
2019-05-29T08:54:23.875Z,73.80
2019-05-29T08:55:19.764Z,74.77
2019-05-29T08:56:17.860Z,83.14
2019-05-29T08:57:18.015Z,73.96
2019-05-29T08:58:18.155Z,76.70
2019-05-29T08:59:18.343Z,78.79
2019-05-29T09:00:18.547Z,76.38
2019-05-29T09:01:19.681Z,75.73
2019-05-29T09:02:19.672Z,73.80
2019-05-29T09:03:19.079Z,88.14
2019-05-29T09:04:19.259Z,75.41
2019-05-29T09:05:19.457Z,80.73
2019-05-29T09:06:19.651Z,78.15
2019-05-29T09:07:19.843Z,76.05
2019-05-29T09:08:20.013Z,80.73
2019-05-29T09:09:20.174Z,78.47
2019-05-29T09:10:20.348Z,76.86
2019-05-29T09:11:20.511Z,89.43
2019-05-29T09:12:20.668Z,76.38
2019-05-29T09:13:20.852Z,78.96
2019-05-29T09:14:21.002Z,79.12
2019-05-29T09:15:22.204Z,77.02
2019-05-29T09:16:21.886Z,77.34
2019-05-29T09:17:22.526Z,75.09
2019-05-29T09:18:21.860Z,75.09
2019-05-29T09:19:22.916Z,76.38
2019-05-29T09:20:41.907Z,76.05
2019-05-29T09:21:26.639Z,82.02
2019-05-29T09:22:22.915Z,78.63
2019-05-29T09:23:23.734Z,77.99
2019-05-29T09:24:23.139Z,79.44
2019-05-29T09:25:24.060Z,77.18
2019-05-29T09:26:25.846Z,81.37
2019-05-29T09:27:24.458Z,78.31
2019-05-29T09:28:23.955Z,75.09
2019-05-29T09:29:25.044Z,75.25
2019-05-29T09:30:24.909Z,74.60
2019-05-29T09:31:24.073Z,75.73
2019-05-29T09:32:46.518Z,76.38
2019-05-29T09:33:26.364Z,76.86
2019-05-29T09:34:25.186Z,77.83
2019-05-29T09:35:25.085Z,76.22
2019-05-29T09:36:26.002Z,74.77
2019-05-29T09:37:25.150Z,77.50
2019-05-29T09:38:26.199Z,76.38
2019-05-29T09:39:25.452Z,76.38
2019-05-29T09:40:25.620Z,75.25
2019-05-29T09:41:25.800Z,76.05
2019-05-29T09:42:26.000Z,76.22
2019-05-29T09:43:30.287Z,77.50
2019-05-29T09:44:37.507Z,76.38
2019-05-29T09:45:28.599Z,86.53
2019-05-29T09:46:26.718Z,77.34
2019-05-29T09:47:26.917Z,77.67
2019-05-29T09:48:28.739Z,76.05
2019-05-29T09:49:28.254Z,81.05
2019-05-29T09:50:27.795Z,76.86
2019-05-29T09:51:28.617Z,78.79
2019-05-29T09:52:30.611Z,77.18
2019-05-29T09:53:28.920Z,74.93
2019-05-29T09:54:28.257Z,76.05
2019-05-29T09:55:28.168Z,81.05
2019-05-29T09:56:28.359Z,74.93
2019-05-29T09:57:28.594Z,79.44
2019-05-29T09:58:28.794Z,77.50
2019-05-29T09:59:28.961Z,74.28
2019-05-29T10:00:29.159Z,74.93
2019-05-29T10:01:29.398Z,76.54
2019-05-29T10:02:29.604Z,76.70
2019-05-29T10:03:29.787Z,79.76
2019-05-29T10:04:29.973Z,82.02
2019-05-29T10:05:30.141Z,76.54
2019-05-29T10:06:30.303Z,75.89
2019-05-29T10:07:30.464Z,75.73
2019-05-29T10:08:30.639Z,73.80
2019-05-29T10:09:30.795Z,76.38
2019-05-29T10:10:30.963Z,80.24
2019-05-29T10:11:31.124Z,76.70
2019-05-29T10:12:31.265Z,73.32
2019-05-29T10:13:31.424Z,73.80
2019-05-29T10:14:31.574Z,76.38
2019-05-29T10:15:32.699Z,77.02
2019-05-29T10:16:31.985Z,76.05
2019-05-29T10:17:32.157Z,75.41
2019-05-29T10:18:32.967Z,76.05
2019-05-29T10:19:33.498Z,76.86
2019-05-29T10:20:32.638Z,77.50
2019-05-29T10:21:40.290Z,77.50
2019-05-29T10:22:34.954Z,75.57
2019-05-29T10:23:33.240Z,75.89
2019-05-29T10:24:33.369Z,78.47
2019-05-29T10:25:33.533Z,75.25
2019-05-29T10:26:33.672Z,75.57
2019-05-29T10:27:33.802Z,78.31
2019-05-29T10:28:50.412Z,80.73
2019-05-29T10:29:35.078Z,83.31
2019-05-29T10:30:34.190Z,83.31
2019-05-29T10:31:34.331Z,76.05
2019-05-29T10:32:34.466Z,76.54
2019-05-29T10:33:34.591Z,76.54
2019-05-29T10:34:34.750Z,78.79
2019-05-29T10:35:35.716Z,78.31
2019-05-29T10:36:35.088Z,78.15
2019-05-29T10:37:35.220Z,77.18
2019-05-29T10:38:35.360Z,77.34
2019-05-29T10:39:35.528Z,75.09
2019-05-29T10:40:36.234Z,76.54
2019-05-29T10:41:35.861Z,75.73
2019-05-29T10:42:36.015Z,77.67
2019-05-29T10:43:37.111Z,75.41
2019-05-29T10:44:36.382Z,75.09
2019-05-29T10:45:36.566Z,78.63
2019-05-29T10:46:36.712Z,77.18
2019-05-29T10:47:37.722Z,73.32
2019-05-29T10:48:36.954Z,84.59
2019-05-29T10:49:37.722Z,76.05
2019-05-29T10:50:37.428Z,77.67
2019-05-29T10:51:37.560Z,75.57
2019-05-29T10:52:37.674Z,78.96
2019-05-29T10:53:37.806Z,78.15
2019-05-29T10:54:39.341Z,74.93
2019-05-29T10:55:39.174Z,75.73
2019-05-29T10:56:38.416Z,74.60
2019-05-29T10:57:38.561Z,75.73
2019-05-29T10:58:48.575Z,94.42
2019-05-29T10:59:40.975Z,81.86
2019-05-29T11:00:39.794Z,75.73
2019-05-29T11:01:39.429Z,79.60
2019-05-29T11:02:39.592Z,76.70
2019-05-29T11:03:39.813Z,77.34
2019-05-29T11:04:39.958Z,80.41
2019-05-29T11:05:40.128Z,78.63
2019-05-29T11:06:41.211Z,76.86
2019-05-29T11:07:41.457Z,79.92
2019-05-29T11:08:40.679Z,77.18
2019-05-29T11:09:44.787Z,78.63
2019-05-29T11:10:42.022Z,75.89
2019-05-29T11:11:41.153Z,79.60
2019-05-29T11:12:41.316Z,78.15
2019-05-29T11:13:41.457Z,78.96
2019-05-29T11:14:41.586Z,77.50
2019-05-29T11:15:41.739Z,82.98
2019-05-29T11:16:41.852Z,74.60
2019-05-29T11:17:42.151Z,77.83
2019-05-29T11:18:42.338Z,77.83
2019-05-29T11:19:42.448Z,74.77
2019-05-29T11:20:42.565Z,76.54
2019-05-29T11:21:42.695Z,79.44
2019-05-29T11:22:43.241Z,77.67
2019-05-29T11:23:42.957Z,78.79
2019-05-29T11:24:43.258Z,79.12
2019-05-29T11:25:43.458Z,81.05
2019-05-29T11:26:43.588Z,73.64
2019-05-29T11:27:44.234Z,81.05
2019-05-29T11:28:43.846Z,74.93
2019-05-29T11:29:43.993Z,83.14
2019-05-29T11:30:44.136Z,72.83
2019-05-29T11:31:44.273Z,75.89
2019-05-29T11:32:47.446Z,88.14
2019-05-29T11:33:46.665Z,76.86
2019-05-29T11:34:45.737Z,82.82
2019-05-29T11:35:58.085Z,76.54
2019-05-29T11:36:45.223Z,77.67
2019-05-29T11:37:45.362Z,77.18
2019-05-29T11:38:45.551Z,77.83
2019-05-29T11:39:45.679Z,75.09
2019-05-29T11:40:46.088Z,76.70
2019-05-29T11:41:46.038Z,77.02
2019-05-29T11:42:46.295Z,79.76
2019-05-29T11:43:46.468Z,78.63
2019-05-29T11:44:46.621Z,78.31
2019-05-29T11:45:46.754Z,76.70
2019-05-29T11:46:46.893Z,75.09
2019-05-29T11:47:47.103Z,75.73
2019-05-29T11:48:47.270Z,77.18
2019-05-29T11:49:47.429Z,76.86
2019-05-29T11:50:47.582Z,73.15
2019-05-29T11:51:47.737Z,75.09
2019-05-29T11:52:48.775Z,78.31
2019-05-29T11:53:48.029Z,76.22
2019-05-29T11:54:48.205Z,75.57
2019-05-29T11:55:48.338Z,78.47
2019-05-29T11:56:48.466Z,79.28
2019-05-29T11:57:48.612Z,76.70
2019-05-29T11:58:50.788Z,77.67
2019-05-29T11:59:48.999Z,77.50
2019-05-29T12:00:49.122Z,77.18
2019-05-29T12:01:50.835Z,76.86
2019-05-29T12:02:51.475Z,74.12
2019-05-29T12:04:15.520Z,75.09
2019-05-29T12:04:53.004Z,85.08
2019-05-29T12:05:51.211Z,76.05
2019-05-29T12:06:51.305Z,73.96
2019-05-29T12:07:51.651Z,73.64
2019-05-29T12:08:51.576Z,75.73
2019-05-29T12:09:51.351Z,75.25
2019-05-29T12:10:51.759Z,73.80
2019-05-29T12:11:51.803Z,74.44
2019-05-29T12:12:53.270Z,80.08
2019-05-29T12:13:51.691Z,72.99
2019-05-29T12:15:00.241Z,85.72
2019-05-29T12:15:53.815Z,77.18
2019-05-29T12:16:54.158Z,79.76
2019-05-29T12:17:59.121Z,76.54
2019-05-29T12:18:54.262Z,75.41
2019-05-29T12:19:54.016Z,76.05
2019-05-29T12:20:53.945Z,73.80
2019-05-29T12:21:54.288Z,75.89
2019-05-29T12:23:13.379Z,77.50
2019-05-29T12:23:56.119Z,78.31
2019-05-29T12:24:54.473Z,73.15
2019-05-29T12:26:12.617Z,77.02
2019-05-29T12:26:56.409Z,75.57
2019-05-29T12:27:55.319Z,76.05
2019-05-29T12:29:00.971Z,76.86
2019-05-29T12:29:56.661Z,74.77
2019-05-29T12:30:55.176Z,78.15
2019-05-29T12:31:54.956Z,77.50
2019-05-29T12:32:56.830Z,78.31
2019-05-29T12:33:55.107Z,78.15
2019-05-29T12:34:56.608Z,77.67
2019-05-29T12:35:56.968Z,75.57
2019-05-29T12:36:55.656Z,87.01
2019-05-29T12:37:55.766Z,90.23
2019-05-29T12:38:57.646Z,78.63
2019-05-29T12:39:57.429Z,77.50
2019-05-29T12:40:57.617Z,75.25
2019-05-29T12:41:57.591Z,84.76
2019-05-29T12:42:57.536Z,74.60
2019-05-29T12:43:57.482Z,76.38
2019-05-29T12:44:59.494Z,82.82
2019-05-29T12:45:57.733Z,77.67
2019-05-29T12:46:59.722Z,81.21
2019-05-29T12:47:58.161Z,78.31
2019-05-29T12:48:59.512Z,79.60
2019-05-29T12:49:57.914Z,77.99
2019-05-29T12:50:58.345Z,77.50
2019-05-29T12:51:59.549Z,76.22
2019-05-29T12:52:59.710Z,77.02
2019-05-29T12:54:00.036Z,81.53
2019-05-29T12:54:59.990Z,76.38